Latest Weather Observations for Williamtown

IDN60901

Issued at 2:11 pm EDT Thursday 22 February 2018 (issued every 10 minutes, with the page automatically refreshed every 10 minutes)

About weather observations | Map of Sydney area stations | Latest observations for Sydney area | Other Formats
Station Details ID: 061078 Name: WILLIAMTOWN RAAF Lat: -32.79 Lon: 151.84 Height: 7.5 m
Data from the previous 72 hours. | See also: Recent months at Williamtown
Date/Time
EDT
Temp
°C
App
Temp
°C
Dew
Point
°C
Rel
Hum
%
Delta-T
°C
Wind Press
QNH
hPa
Press
MSL
hPa
Rain since
9am
mm
Dir  Spd
km/h
Gust
km/h
Spd
kts
Gust
kts
22/02:00pm 26.2 23.3 13.0 44 7.7 E 20 33 11 18 1015.5 1015.4 0.0
22/01:30pm 26.8 23.9 12.8 42 8.2 NE 20 33 11 18 1015.5 1015.4 0.0
22/01:00pm 26.3 23.5 13.1 44 7.7 ENE 20 30 11 16 1015.9 1015.8 0.0
22/12:30pm 26.5 23.5 12.5 41 8.1 ENE 20 33 11 18 1016.2 1016.1 0.0
22/12:00pm 26.2 22.6 13.0 44 7.7 ENE 24 35 13 19 1016.5 1016.4 0.0
22/11:30am 25.1 22.5 13.9 49 6.6 ENE 20 28 11 15 1016.9 1016.8 0.0
22/11:00am 24.4 21.8 13.3 50 6.4 NNE 19 26 10 14 1017.1 1017.0 0.0
22/10:30am 23.9 22.6 13.7 53 6.0 N 13 24 7 13 1017.5 1017.4 0.0
22/10:00am 23.1 22.4 14.4 58 5.1 NNE 11 19 6 10 1017.5 1017.4 0.0
22/09:30am 22.4 22.1 15.5 65 4.1 N 11 13 6 7 1017.6 1017.5 0.0
22/09:00am 20.8 22.8 16.0 74 2.9 CALM 0 0 0 0 1017.7 1017.6 0.0
22/08:30am 19.5 21.3 15.4 77 2.4 CALM 0 0 0 0 1017.5 1017.4 0.0
22/08:00am 18.5 20.5 15.9 85 1.5 CALM 0 6 0 3 1017.4 1017.3 0.0
22/07:30am 17.5 19.6 16.2 92 0.8 CALM 0 0 0 0 1017.3 1017.2 0.0
22/07:00am 16.7 18.5 15.4 92 0.8 CALM 0 0 0 0 1016.9 1016.8 0.0
22/06:30am 16.6 18.0 15.5 93 0.6 WSW 2 7 1 4 1016.8 1016.7 0.0
22/06:00am 16.2 17.9 15.2 94 0.6 CALM 0 0 0 0 1016.4 1016.3 0.0
22/05:30am 15.8 16.1 14.5 92 0.7 WSW 6 7 3 4 1016.4 1016.3 0.0
22/05:00am 16.8 17.8 15.3 91 0.9 WSW 4 7 2 4 1015.8 1015.7 0.0
22/04:30am 16.8 18.4 15.0 89 1.0 CALM 0 0 0 0 1015.8 1015.7 0.0
22/04:00am 17.7 19.7 15.9 89 1.1 CALM 0 0 0 0 1015.9 1015.8 0.0
22/03:30am 17.2 18.9 15.2 88 1.2 CALM 0 0 0 0 1016.0 1015.9 0.0
22/03:00am 17.5 19.4 15.7 89 1.1 CALM 0 0 0 0 1016.3 1016.2 0.0
22/02:30am 17.8 19.6 15.6 87 1.3 CALM 0 0 0 0 1016.4 1016.3 0.0
22/02:00am 18.0 19.7 15.3 84 1.6 CALM 0 0 0 0 1016.6 1016.5 0.0
22/01:30am 18.4 20.5 16.2 87 1.3 CALM 0 0 0 0 1016.8 1016.7 0.0
22/01:00am 18.0 19.8 15.6 86 1.4 CALM 0 0 0 0 1017.0 1016.9 0.0
22/12:30am 17.6 19.4 15.6 88 1.2 CALM 0 0 0 0 1017.2 1017.1 0.0
22/12:00am 17.7 19.3 14.8 83 1.7 CALM 0 0 0 0 1017.2 1017.1 0.0
 
Date/Time
EDT
Temp
°C
App
Temp
°C
Dew
Point
°C
Rel
Hum
%
Delta-T
°C
Wind Press
QNH
hPa
Press
MSL
hPa
Rain since
9am
mm
Dir  Spd
km/h
Gust
km/h
Spd
kts
Gust
kts
21/11:30pm 19.4 20.1 15.7 79 2.2 NE 6 9 3 5 1017.1 1017.0 0.0
21/11:00pm 19.9 20.4 15.5 76 2.6 NE 7 9 4 5 1017.7 1017.6 0.0
21/10:30pm 20.4 20.9 15.6 74 2.9 E 7 7 4 4 1018.2 1018.1 0.0
21/10:00pm 20.5 20.6 15.5 73 3.0 ENE 9 11 5 6 1017.8 1017.7 0.0
21/09:30pm 21.0 20.7 15.5 71 3.3 ENE 11 15 6 8 1017.5 1017.4 0.0
21/09:00pm 21.3 21.4 15.4 69 3.5 E 9 13 5 7 1017.2 1017.1 0.0
21/08:30pm 21.4 21.0 15.3 68 3.6 E 11 15 6 8 1016.9 1016.8 0.0
21/08:00pm 21.6 20.8 15.0 66 3.9 ESE 13 15 7 8 1016.8 1016.7 0.0
21/07:30pm 21.9 20.9 14.5 63 4.3 ENE 13 19 7 10 1016.4 1016.3 0.0
21/07:00pm 22.4 20.4 14.0 59 4.9 ESE 17 22 9 12 1016.6 1016.5 0.0
21/06:30pm 22.7 20.4 14.0 58 5.1 ESE 19 26 10 14 1016.3 1016.2 0.0
21/06:00pm 23.6 20.0 13.2 52 6.0 ESE 24 32 13 17 1016.3 1016.2 0.0
21/05:30pm 24.1 21.1 12.7 49 6.6 ESE 20 32 11 17 1016.4 1016.3 0.0
21/05:00pm 24.0 20.3 12.6 49 6.5 ESE 24 33 13 18 1016.4 1016.3 0.0
21/04:30pm 24.1 21.0 13.3 51 6.3 ESE 22 33 12 18 1016.5 1016.4 0.0
21/04:00pm 24.3 19.9 12.9 49 6.6 ESE 28 35 15 19 1016.3 1016.2 0.0
21/03:30pm 24.6 20.6 12.9 48 6.8 SE 26 35 14 19 1016.7 1016.6 0.0
21/03:00pm 24.0 19.4 12.3 48 6.7 SE 28 33 15 18 1016.8 1016.7 0.0
21/02:30pm 24.9 21.4 12.2 45 7.3 ESE 22 33 12 18 1017.1 1017.0 0.0
21/02:00pm 24.6 20.5 11.5 44 7.4 SE 24 30 13 16 1017.4 1017.3 0.0
21/01:30pm 24.3 21.3 11.9 45 7.0 ESE 19 28 10 15 1017.7 1017.6 0.0
21/01:00pm 23.5 20.4 11.5 47 6.7 SE 19 28 10 15 1018.1 1018.0 0.0
21/12:30pm 23.7 21.9 13.3 52 6.0 SSE 15 20 8 11 1018.3 1018.2 0.0
21/12:00pm 23.0 21.6 14.6 59 5.0 SSE 15 20 8 11 1018.6 1018.5 0.0
21/11:30am 22.8 21.4 13.3 55 5.5 SE 13 24 7 13 1018.9 1018.8 0.0
21/11:00am 22.9 21.5 13.4 55 5.5 SSE 13 19 7 10 1018.9 1018.8 0.0
21/10:30am 22.8 20.8 12.7 53 5.8 SSE 15 22 8 12 1019.0 1018.9 0.0
21/10:00am 22.1 21.2 13.7 59 4.9 SSE 11 17 6 9 1019.0 1018.9 0.0
21/09:30am 21.7 22.1 14.8 65 4.1 WSW 6 9 3 5 1018.7 1018.6 0.0
21/09:00am 19.5 19.6 15.4 77 2.4 WSW 9 13 5 7 1018.8 1018.7 1.6
21/08:30am 18.7 18.4 15.4 81 1.9 WNW 11 13 6 7 1018.7 1018.6 1.6
21/08:00am 17.9 17.5 15.3 85 1.5 NW 11 11 6 6 1018.5 1018.4 1.6
21/07:30am 17.2 16.8 15.2 88 1.2 NW 11 15 6 8 1018.3 1018.2 1.6
21/07:00am 16.4 16.2 14.6 89 1.0 WNW 9 11 5 6 1018.1 1018.0 1.6
21/06:30am 17.2 17.1 15.0 87 1.3 NNW 9 11 5 6 1018.0 1017.9 1.6
21/06:00am 17.4 17.7 15.0 86 1.4 NNW 7 9 4 5 1018.1 1018.0 1.6
21/05:30am 17.4 17.3 15.0 86 1.4 WNW 9 11 5 6 1018.0 1017.9 1.6
21/05:00am 17.4 17.0 15.2 87 1.3 WNW 11 13 6 7 1018.0 1017.9 1.6
21/04:30am 17.5 16.7 15.1 86 1.4 WNW 13 15 7 8 1018.0 1017.9 1.6
21/04:00am 17.7 16.5 15.0 84 1.6 NW 15 17 8 9 1017.8 1017.7 1.6
21/03:30am 17.7 17.4 14.4 81 1.9 NNW 9 11 5 6 1017.7 1017.6 1.6
21/03:00am 17.5 17.5 14.2 81 1.9 WSW 7 9 4 5 1017.9 1017.8 1.6
21/02:30am 18.5 16.2 10.6 60 4.3 SE 13 15 7 8 1017.9 1017.8 1.6
21/02:00am 19.2 16.9 10.5 57 4.7 SE 13 15 7 8 1018.0 1017.9 1.6
21/01:30am 19.1 17.2 10.6 58 4.6 SE 11 17 6 9 1018.2 1018.1 1.6
21/01:00am 20.2 17.7 10.9 55 5.1 SE 15 19 8 10 1018.2 1018.1 1.6
21/12:30am 20.5 17.9 10.6 53 5.4 SE 15 20 8 11 1018.4 1018.3 1.6
21/12:00am 20.8 19.1 11.2 54 5.3 ESE 11 15 6 8 1018.7 1018.6 1.6
 
Date/Time
EDT
Temp
°C
App
Temp
°C
Dew
Point
°C
Rel
Hum
%
Delta-T
°C
Wind Press
QNH
hPa
Press
MSL
hPa
Rain since
9am
mm
Dir  Spd
km/h
Gust
km/h
Spd
kts
Gust
kts
20/11:30pm 20.8 18.9 11.7 56 5.1 ESE 13 19 7 10 1018.7 1018.6 1.6
20/11:00pm 20.9 18.1 11.3 54 5.3 SE 17 20 9 11 1018.8 1018.7 1.6
20/10:30pm 20.6 18.0 12.1 58 4.8 SE 17 26 9 14 1018.7 1018.6 1.6
20/10:00pm 19.7 18.5 13.9 69 3.3 SSW 13 22 7 12 1019.1 1019.0 1.6
20/09:30pm 19.6 19.5 13.8 69 3.3 SE 7 11 4 6 1019.0 1018.9 1.6
20/09:00pm 20.1 17.5 13.3 65 3.9 SSE 19 30 10 16 1019.0 1018.9 1.6
20/08:30pm 21.0 18.1 12.4 58 4.8 SE 19 30 10 16 1018.5 1018.4 1.6
20/08:00pm 20.9 17.4 12.3 58 4.8 SE 22 30 12 16 1018.2 1018.1 1.6
20/07:30pm 20.9 17.1 12.3 58 4.8 SSE 24 39 13 21 1017.9 1017.8 1.6
20/07:00pm 21.0 16.8 12.4 58 4.8 SSE 26 33 14 18 1017.6 1017.5 1.6
20/06:30pm 21.3 17.0 12.2 56 5.1 SSE 26 35 14 19 1017.5 1017.4 1.6
20/06:00pm 21.1 17.8 12.8 59 4.7 SE 22 32 12 17 1017.3 1017.2 1.6
20/05:30pm 21.4 17.4 13.1 59 4.7 SE 26 32 14 17 1017.1 1017.0 1.6
20/05:00pm 21.5 18.2 13.9 62 4.4 SE 24 30 13 16 1017.1 1017.0 1.6
20/04:30pm 21.5 17.5 12.9 58 4.9 SE 26 33 14 18 1017.1 1017.0 1.6
20/04:00pm 21.6 17.0 12.2 55 5.3 SE 28 37 15 20 1017.3 1017.2 1.6
20/03:30pm 21.6 16.9 13.2 59 4.8 SE 30 37 16 20 1017.2 1017.1 1.6
20/03:00pm 22.1 16.6 12.6 55 5.4 SSE 33 39 18 21 1017.3 1017.2 1.6
20/02:30pm 21.9 17.0 12.7 56 5.2 SSE 30 39 16 21 1017.7 1017.6 1.6
20/02:00pm 21.5 15.5 13.2 59 4.7 SSE 37 46 20 25 1017.6 1017.5 1.6
20/01:30pm 21.1 15.6 13.5 62 4.4 SSE 35 52 19 28 1017.4 1017.3 1.6
20/01:00pm 20.9 15.8 14.8 68 3.6 SSE 35 50 19 27 1017.2 1017.1 1.4
20/12:38pm 19.9 14.7 15.5 76 2.6 SSE 37 56 20 30 1017.1 1017.0 1.4
20/12:30pm 19.3 13.6 16.2 82 1.9 SSE 41 54 22 29 1017.2 1017.1 1.4
20/12:11pm 19.4 14.0 16.1 81 2.0 SSE 39 54 21 29 1017.1 1017.0 1.4
20/12:00pm 20.7 15.3 16.1 75 2.8 SSE 39 54 21 29 1017.0 1016.9 1.2
20/11:30am 20.3 14.4 16.7 80 2.2 SSE 43 54 23 29 1016.9 1016.8 1.2
20/11:05am 20.6 15.1 16.8 79 2.3 SSE 41 59 22 32 1016.7 1016.6 1.2
20/11:00am 20.5 15.5 17.1 81 2.1 S 39 54 21 29 1016.7 1016.6 1.2
20/10:30am 20.1 15.5 17.9 87 1.4 S 39 50 21 27 1016.7 1016.6 1.2
20/10:17am 21.1 17.3 18.1 83 1.9 SSE 35 48 19 26 1016.6 1016.5 1.2
20/10:00am 20.1 16.4 18.4 90 1.1 SSE 35 46 19 25 1016.6 1016.5 1.2
20/09:57am 20.2 16.9 18.3 89 1.2 SSE 33 46 18 25 1016.6 1016.5 0.8
20/09:30am 21.5 16.8 17.7 79 2.3 SSE 39 54 21 29 1016.3 1016.2 0.0
20/09:00am 21.4 17.4 17.6 79 2.3 SSE 35 48 19 26 1015.9 1015.8 32.8
20/08:30am 21.0 17.0 18.6 86 1.5 SSE 37 54 20 29 1015.5 1015.4 32.8
20/08:25am 21.2 17.5 18.4 84 1.7 SSE 35 54 19 29 1015.4 1015.3 32.8
20/08:00am 21.1 17.9 18.7 86 1.5 SSE 33 50 18 27 1015.2 1015.1 32.8
20/07:57am 21.1 18.2 18.9 87 1.4 SSE 32 50 17 27 1015.2 1015.1 32.6
20/07:30am 21.0 19.7 19.1 89 1.2 SE 24 33 13 18 1014.8 1014.7 31.2
20/07:19am 20.2 21.2 19.4 95 0.5 ESE 13 30 7 16 1014.7 1014.6 31.2
20/07:00am 20.1 21.1 19.4 96 0.4 ESE 13 20 7 11 1014.6 1014.5 29.8
20/06:35am 19.9 21.2 19.4 97 0.3 ESE 11 17 6 9 1014.2 1014.1 25.2
20/06:30am 20.0 22.2 19.5 97 0.3 NNE 7 17 4 9 1014.1 1014.0 24.8
20/06:20am 19.7 21.7 19.2 97 0.3 NNE 7 11 4 6 1014.1 1014.0 23.0
20/06:00am 19.7 20.6 19.2 97 0.3 E 13 19 7 10 1013.9 1013.8 20.8
20/05:34am 19.8 21.5 19.3 97 0.3 SE 9 15 5 8 1013.7 1013.6 12.8
20/05:30am 19.7 21.3 19.2 97 0.3 SE 9 13 5 7 1013.6 1013.5 12.2
20/05:12am 19.5 18.5 18.8 96 0.4 SE 22 30 12 16 1013.6 1013.5 9.0
20/05:00am 19.8 19.4 18.8 94 0.6 ESE 19 24 10 13 1013.3 1013.2 2.8
20/04:46am 19.8 17.5 18.5 92 0.8 SE 28 37 15 20 1013.0 1012.9 0.2
20/04:38am 20.8 18.6 17.8 83 1.9 ESE 26 33 14 18 1012.7 1012.6 0.0
20/04:30am 21.2 19.3 17.6 80 2.2 ESE 24 37 13 20 1012.8 1012.7 0.0
20/04:24am 21.4 20.5 18.2 82 2.0 ESE 20 37 11 20 1012.7 1012.6 0.0
20/04:00am 21.8 23.3 19.0 84 1.8 S 9 17 5 9 1012.9 1012.8 0.0
20/03:30am 22.0 21.4 18.8 82 2.0 SSE 20 28 11 15 1012.7 1012.6 0.0
20/03:00am 21.4 20.4 18.8 85 1.6 SSE 22 33 12 18 1012.9 1012.8 0.0
20/02:30am 21.4 21.0 19.0 86 1.5 SSE 19 30 10 16 1013.0 1012.9 0.0
20/02:00am 21.6 18.5 17.6 78 2.5 SSE 30 41 16 22 1013.0 1012.9 0.0
20/01:53am 21.9 21.6 18.3 80 2.2 SSE 17 41 9 22 1013.0 1012.9 0.0
20/01:30am 21.6 22.4 17.4 77 2.6 SE 9 13 5 7 1012.8 1012.7 0.0
20/01:00am 22.2 23.2 17.8 76 2.7 ESE 9 11 5 6 1012.8 1012.7 0.0
20/12:30am 22.8 24.2 18.6 77 2.6 ESE 9 11 5 6 1012.7 1012.6 0.0
20/12:00am 22.7 24.2 18.0 75 2.9 SE 7 9 4 5 1013.0 1012.9 0.0
 
Date/Time
EDT
Temp
°C
App
Temp
°C
Dew
Point
°C
Rel
Hum
%
Delta-T
°C
Wind Press
QNH
hPa
Press
MSL
hPa
Rain since
9am
mm
Dir  Spd
km/h
Gust
km/h
Spd
kts
Gust
kts
19/11:30pm 23.1 24.5 17.8 72 3.3 SE 7 9 4 5 1013.3 1013.2 0.0
19/11:00pm 23.4 24.8 17.8 71 3.5 SSE 7 9 4 5 1013.6 1013.5 0.0
19/10:30pm 23.6 24.7 18.0 71 3.5 SE 9 11 5 6 1014.1 1014.0 0.0
19/10:00pm 23.8 24.4 17.8 69 3.7 SSE 11 13 6 7 1014.3 1014.2 0.0
19/09:30pm 23.9 24.0 17.4 67 4.0 SSE 13 17 7 9 1014.0 1013.9 0.0
19/09:00pm 23.8 23.8 17.3 67 4.0 SSE 13 19 7 10 1013.7 1013.6 0.0
19/08:30pm 24.1 23.5 16.6 63 4.6 SSE 15 22 8 12 1013.3 1013.2 0.0
19/08:00pm 24.3 22.2 17.1 64 4.5 SSE 24 33 13 18 1012.7 1012.6 0.0
19/07:30pm 24.4 22.9 17.6 66 4.2 SSE 22 28 12 15 1012.6 1012.5 0.0
19/07:00pm 24.6 22.9 17.3 64 4.5 SSE 22 28 12 15 1011.9 1011.8 0.0
19/06:30pm 24.9 21.8 17.6 64 4.6 SSE 30 37 16 20 1011.4 1011.3 0.0
19/06:00pm 25.2 22.8 18.2 65 4.4 SE 28 35 15 19 1011.1 1011.0 0.0
19/05:30pm 25.8 23.1 18.5 64 4.6 SSE 30 37 16 20 1011.0 1010.9 0.0
19/05:00pm 26.9 23.8 18.5 60 5.4 SSE 32 39 17 21 1010.7 1010.6 0.0
19/04:30pm 26.1 23.0 18.5 63 4.8 SE 32 39 17 21 1010.5 1010.4 0.0
19/04:00pm 26.9 24.5 19.0 62 5.1 SE 30 39 16 21 1010.1 1010.0 0.0
19/03:30pm 26.9 25.3 19.3 63 4.9 SE 26 33 14 18 1010.3 1010.2 0.0
19/03:00pm 27.2 27.0 19.3 62 5.1 SE 19 26 10 14 1010.7 1010.6 0.0
19/02:30pm 26.4 25.2 18.5 62 5.0 SSE 22 32 12 17 1011.1 1011.0 0.0

Latest Capital City Observations: Canberra | Sydney | Melbourne | Brisbane | Adelaide | Perth | Hobart | Darwin

Other Formats:

Comma delimited format used in spreadsheet applications
http://www.bom.gov.au/fwo/IDN60901/IDN60901.94776.axf

JavaScript Object Notation format (JSON) in row-major order
http://www.bom.gov.au/fwo/IDN60901/IDN60901.94776.json